Date,TemperatureHighF,TemperatureAvgF,TemperatureLowF,DewpointHighF,DewpointAvgF,DewpointLowF,HumidityHigh,HumidityAvg,HumidityLow,PressureMaxIn,PressureMinIn,WindSpeedMaxMPH,WindSpeedAvgMPH,GustSpeedMaxMPH,PrecipitationSumIn
2013-1-1,36,32,29,29,26,24,88,78,71,30.48,30.39,2,-487,4,0.00
2013-1-2,38,33,32,27,25,24,76,72,65,30.37,30.25,2,1,6,0.00
2013-1-3,36,33,31,31,25,23,88,72,63,30.28,30.18,2,1,3,0.00
2013-1-4,39,36,34,36,33,29,94,87,80,30.36,30.22,1,0,3,0.05
2013-1-5,36,34,33,32,30,28,92,84,78,30.26,30.19,1,0,4,0.03
2013-1-6,42,37,34,41,36,32,96,95,93,30.27,30.08,1,0,4,0.20
2013-1-7,49,46,42,48,44,41,96,95,94,30.23,30.00,3,1,10,0.13
2013-1-8,51,48,44,49,46,43,96,93,86,30.22,29.90,4,1,9,0.13
2013-1-9,49,40,36,45,38,34,95,92,81,29.99,29.80,3,0,5,0.29
2013-1-10,37,35,33,35,34,32,95,94,93,30.12,29.99,1,0,3,0.17
2013-1-11,34,32,30,31,30,28,94,91,85,30.32,30.23,1,0,3,0.00
2013-1-12,32,30,28,30,28,26,95,93,90,30.43,30.32,2,0,4,0.00
2013-1-13,30,29,28,27,26,25,91,89,85,30.52,30.43,1,0,2,0.00
2013-1-14,32,30,28,30,28,25,95,92,89,30.59,30.51,0,-626,2,0.00
2013-1-15,34,33,32,34,32,30,96,95,94,30.68,30.59,0,-983,0,0.06
2013-1-16,34,33,32,33,32,31,96,96,95,30.65,30.51,0,-989,0,0.00
2013-1-17,38,34,31,35,32,29,96,93,82,30.51,30.34,1,-830,2,0.00
2013-1-18,34,34,33,32,32,31,93,93,92,30.31,30.30,0,-999,0,0.00
2013-1-19,38,34,30,34,31,28,94,89,83,30.36,30.29,0,-732,0,0.00
2013-1-20,36,33,30,31,29,27,91,84,78,30.38,30.27,0,-702,0,0.00
2013-1-21,34,31,30,28,26,25,84,80,76,30.26,30.18,0,-999,0,0.00
2013-1-22,37,32,30,27,26,24,84,76,65,30.19,29.98,0,-843,0,0.00
2013-1-23,34,33,32,32,28,25,95,84,72,30.23,29.93,0,-993,0,0.28
2013-1-24,42,37,33,40,36,32,96,95,91,30.25,30.12,0,-988,0,0.26
2013-1-25,47,44,42,46,43,40,97,96,96,30.16,29.97,0,-982,0,0.19
2013-1-26,42,41,38,40,39,37,96,94,90,30.10,29.94,0,-999,0,0.04
2013-1-27,40,39,38,38,37,36,95,95,93,30.16,30.05,0,-990,0,0.18
2013-1-28,42,40,38,41,39,37,96,96,95,30.22,30.09,0,-999,0,0.60
2013-1-29,45,43,41,44,42,40,97,96,95,30.47,30.22,0,-999,0,0.38
2013-1-30,47,44,42,46,43,40,96,96,94,30.47,30.42,0,-999,0,0.07
2013-1-31,48,47,46,46,45,45,96,94,92,30.36,30.34,0,-999,0,0.00
2013-2-1,48,46,43,45,43,40,97,92,87,30.37,30.28,0,-980,0,0.00
2013-2-2,53,44,39,45,40,36,93,85,69,30.32,30.26,2,-384,4,0.00
2013-2-3,45,42,38,42,40,36,96,94,91,30.35,30.24,1,0,2,0.00
2013-2-4,49,45,41,44,42,40,96,90,75,30.25,29.95,2,0,2,0.00
2013-2-5,48,44,42,45,42,41,95,92,84,30.05,29.92,3,1,6,0.13
2013-2-6,48,44,41,43,41,39,94,89,78,30.10,29.86,3,-260,8,0.06
2013-2-7,46,41,37,39,38,35,95,89,70,30.16,29.92,2,-918,3,0.22
2013-2-8,41,37,34,38,35,33,95,92,84,30.30,30.16,1,-952,1,0.00
2013-2-9,42,37,35,40,36,33,95,93,90,30.30,30.27,0,-999,0,0.00
2013-2-10,41,41,41,37,37,37,88,88,88,30.34,30.34,0,-999,0,0.00
2013-2-12,51,48,47,47,45,44,91,89,83,30.45,30.42,0,-999,0,0.00
2013-2-13,47,46,44,44,43,40,94,90,83,30.52,30.42,0,-993,0,0.01
2013-2-14,44,43,41,42,40,39,94,91,89,30.54,30.52,0,-999,0,0.00
2013-2-15,54,46,42,47,43,40,95,88,76,30.52,30.21,3,-892,4,0.00
2013-2-18,44,42,37,38,36,34,90,81,70,30.02,29.75,2,-896,3,0.01
2013-2-19,48,42,36,41,37,35,95,85,66,30.00,29.72,2,-899,3,0.08
2013-2-20,46,40,36,40,37,34,94,90,75,30.10,30.01,2,-968,2,0.08
2013-2-21,42,41,40,40,39,38,93,92,88,30.19,30.14,0,-988,0,0.05
2013-2-22,44,42,40,43,40,38,96,93,89,30.17,29.87,0,-999,0,0.41
2013-2-23,43,38,36,40,36,34,95,92,82,30.45,30.11,4,-912,4,0.07
2013-2-24,47,42,37,39,37,35,93,81,64,30.45,30.06,3,-822,4,0.01
2013-2-25,44,40,36,41,38,34,95,90,75,30.39,30.01,1,-921,1,0.18
2013-2-26,45,40,36,38,36,34,94,86,68,30.40,30.26,1,-904,2,0.00
2013-2-27,47,46,45,44,44,43,95,91,85,30.28,30.25,0,-999,0,0.08
2013-2-28,53,49,45,51,48,44,96,95,94,30.44,30.20,0,-999,0,0.16
2013-3-1,57,53,50,52,50,49,94,90,79,30.45,30.35,1,-983,1,0.01
2013-3-2,53,52,50,48,48,47,90,85,81,30.22,30.16,2,-979,2,0.00
2013-3-3,45,42,38,39,37,35,90,84,73,30.32,30.26,1,-848,2,0.01
2013-3-4,44,37,33,35,33,30,94,86,60,30.27,29.95,0,-999,0,0.00
2013-3-6,40,40,40,39,39,39,94,94,94,29.97,29.97,0,-999,0,0.00
2013-3-7,44,43,42,39,38,38,85,83,81,30.06,30.05,0,-999,0,0.00
2013-3-9,54,50,45,42,40,39,80,70,56,30.50,30.43,1,-897,5,0.00
2013-3-10,45,44,44,42,42,42,91,90,88,30.45,30.43,0,-999,0,0.01
2013-3-11,52,47,43,48,44,41,94,92,88,30.44,30.25,0,-987,0,0.00
2013-3-12,57,52,48,50,48,45,95,86,70,30.25,30.16,3,-930,5,0.01
2013-3-13,51,50,50,46,46,45,85,85,84,30.23,30.22,0,-999,0,0.00
2013-3-14,52,51,50,47,47,46,89,84,82,30.21,30.09,0,-999,0,0.00
2013-3-15,52,51,50,47,47,47,88,86,84,30.22,30.20,0,-999,0,0.00
2013-3-17,47,46,43,38,36,33,79,69,58,30.29,30.25,2,-441,4,0.01
2013-3-19,45,44,42,44,42,41,95,95,94,29.77,29.68,0,-999,0,0.64
2013-3-20,50,48,42,49,45,38,96,90,74,29.98,29.53,3,-805,5,0.53
2013-3-23,46,44,40,36,34,31,84,69,58,30.39,30.30,2,-639,4,0.02
2013-3-24,52,45,36,37,35,32,88,68,54,30.29,30.11,0,-999,0,0.00
2013-3-25,58,48,41,46,37,32,76,64,47,30.11,29.92,2,-845,5,0.00
2013-3-26,51,46,42,46,43,39,92,87,78,30.03,29.97,0,-981,0,0.00
2013-3-27,60,51,43,49,45,41,95,81,57,30.00,29.91,2,-833,3,0.00
2013-3-28,61,53,46,50,47,44,94,81,58,30.14,30.00,2,-801,3,0.00
2013-3-29,64,55,48,51,48,46,93,79,57,30.21,30.14,7,-736,7,0.01
2013-3-30,76,67,58,55,51,48,72,58,45,30.12,29.98,3,-601,6,0.00
2013-3-31,74,61,49,53,48,43,85,65,42,30.00,29.90,1,-850,5,0.00
2013-4-1,62,56,50,52,49,47,89,79,67,30.17,29.99,3,-924,3,0.00
2013-4-2,63,54,49,51,48,46,89,80,59,30.21,30.13,3,-847,3,0.00
2013-4-3,62,54,47,53,49,45,92,83,68,30.17,29.92,2,-816,4,0.00
2013-4-4,57,54,52,55,51,48,95,89,83,29.92,29.70,3,-987,3,0.20
2013-4-5,57,52,49,50,48,47,95,88,73,29.94,29.81,5,-957,8,0.30
2013-4-6,54,49,46,48,46,42,95,90,72,30.00,29.80,2,-680,5,0.38
2013-4-7,49,45,41,47,43,39,95,92,87,29.97,29.54,4,1,13,0.33
2013-4-8,51,44,39,46,41,37,94,88,73,30.30,29.97,1,0,6,0.02
2013-4-9,54,47,41,46,42,39,93,85,67,30.37,30.25,2,0,5,0.00
2013-4-10,55,51,44,51,46,40,95,83,68,30.35,30.11,3,1,8,0.23
2013-4-11,52,46,40,45,41,37,93,83,70,30.36,30.19,2,0,4,0.01
2013-4-12,50,44,38,45,40,35,93,85,70,30.19,29.86,2,0,3,0.06
2013-4-13,47,44,40,40,37,36,87,77,67,30.10,30.06,2,1,6,0.13
2013-4-14,51,41,39,42,38,36,93,88,64,30.10,29.95,2,0,7,0.05
2013-4-15,53,44,38,43,38,34,93,78,50,30.19,29.96,6,-391,6,0.08
2013-4-16,47,41,38,42,39,37,94,91,79,30.41,30.18,3,-941,3,0.04
2013-4-17,56,50,40,44,40,37,89,72,56,30.50,30.41,0,-672,0,0.00
2013-4-18,56,49,44,48,43,39,93,79,64,30.49,30.32,0,-932,0,0.03
2013-4-19,54,50,48,51,47,45,95,89,79,30.32,30.14,2,-662,2,0.52
2013-4-20,56,50,46,45,44,42,93,80,64,30.35,30.27,1,0,3,0.01
2013-4-21,50,47,44,48,43,41,92,85,78,30.32,30.26,1,0,3,0.03
2013-4-22,62,51,41,44,38,32,92,65,34,30.45,30.32,4,1,7,0.00
2013-4-23,65,54,42,42,36,31,79,53,29,30.39,30.16,3,1,7,0.00
2013-4-24,70,61,48,43,38,32,65,43,33,30.25,30.02,3,1,6,0.00
2013-4-25,71,60,49,50,43,37,72,55,40,30.15,30.02,3,1,6,0.00
2013-4-26,73,60,47,53,47,40,89,64,32,30.25,30.15,2,0,4,0.00
2013-4-27,69,57,50,50,44,40,84,64,38,30.26,30.20,2,0,5,0.00
2013-4-28,65,56,51,49,45,38,87,68,40,30.26,30.08,2,0,4,0.00
2013-4-29,56,50,42,48,40,31,91,69,43,30.23,30.05,2,1,5,0.04
2013-4-30,52,46,40,39,36,32,89,70,51,30.45,30.23,2,0,5,0.00
2013-5-1,65,51,38,42,38,34,86,62,38,30.53,30.45,4,1,6,0.00
2013-5-2,74,61,49,46,39,34,61,45,28,30.47,30.25,4,1,10,0.00
2013-5-3,74,57,51,47,40,36,64,54,38,30.29,30.13,2,1,6,0.00
2013-5-4,79,67,55,50,43,38,68,45,26,30.14,29.91,2,1,5,0.00
2013-5-5,80,69,58,49,44,38,60,41,27,29.91,29.70,3,1,8,0.00
2013-5-6,79,67,55,57,50,44,75,57,35,29.86,29.74,2,0,5,0.00
2013-5-7,71,60,51,56,51,47,88,71,50,30.02,29.86,2,0,3,0.00
2013-5-8,63,56,52,55,50,48,89,82,69,30.15,30.02,2,0,3,0.00
2013-5-9,72,60,50,56,52,47,92,76,53,30.20,30.08,3,0,6,0.00
2013-5-10,78,66,55,60,56,51,85,69,50,30.19,30.09,3,0,4,0.00
2013-5-11,81,68,56,60,56,50,82,66,44,30.18,29.99,2,0,3,0.00
2013-5-12,67,62,57,60,56,54,94,83,70,30.11,30.05,2,0,3,0.28
2013-5-13,64,57,49,56,52,44,94,83,64,30.23,30.03,2,0,7,0.04
2013-5-14,65,54,46,46,43,40,88,70,44,30.24,30.11,3,0,6,0.00
2013-5-15,55,52,50,51,48,45,91,85,73,30.12,30.03,2,0,5,0.07
2013-5-16,60,55,52,54,52,49,95,90,78,30.03,29.94,2,0,5,0.11
2013-5-17,59,53,48,50,48,46,93,83,63,30.11,29.99,2,0,6,0.01
2013-5-18,55,52,50,51,48,45,95,89,79,30.28,30.11,1,0,5,0.24
2013-5-19,63,54,51,51,49,46,95,82,60,30.42,30.28,2,0,4,0.00
2013-5-20,69,59,50,52,50,46,88,73,50,30.26,29.91,2,1,5,0.00
2013-5-21,56,49,43,49,45,41,93,87,77,29.98,29.85,1,0,3,0.56
2013-5-22,47,45,41,45,43,40,95,94,94,29.97,29.94,2,1,7,1.11
2013-5-23,50,46,44,47,44,42,95,93,85,30.03,29.96,2,1,7,1.03
2013-5-24,55,50,46,50,47,45,95,91,80,30.09,29.98,3,0,10,0.47
2013-5-25,66,54,48,52,48,45,94,81,49,30.08,29.93,2,0,6,0.00
2013-5-26,61,55,52,53,50,48,95,84,69,30.03,29.94,3,0,6,0.15
2013-5-27,60,53,50,59,50,47,96,91,81,30.00,29.75,2,1,8,0.58
2013-5-28,60,54,50,51,49,46,95,86,63,29.94,29.86,2,0,7,0.05
2013-5-29,59,56,49,53,50,45,94,81,68,30.06,29.73,2,1,4,0.39
2013-5-30,60,53,47,52,48,45,93,83,66,30.26,30.06,2,0,5,0.03
2013-5-31,68,56,50,50,47,43,90,73,48,30.34,30.24,2,0,5,0.00
2013-6-1,71,60,50,56,51,46,91,74,48,30.24,30.02,2,0,3,0.01
2013-6-2,69,60,54,53,51,49,86,72,56,30.08,30.03,2,1,5,0.00
2013-6-3,69,57,49,55,50,46,89,77,57,30.13,30.04,2,0,5,0.00
2013-6-4,81,73,58,57,54,50,78,53,39,30.08,29.97,2,1,6,0.00
2013-6-5,78,73,65,61,58,53,73,59,46,30.07,29.97,2,1,5,0.00
2013-6-6,79,66,56,60,54,43,87,68,50,30.05,29.98,3,0,7,0.00
2013-6-7,76,63,54,58,49,43,81,63,44,30.15,30.04,2,0,7,0.00
2013-6-8,75,60,51,54,49,44,85,69,46,30.17,30.06,2,0,4,0.00
2013-6-9,66,56,51,51,48,45,86,73,57,30.11,29.99,2,0,7,0.00
2013-6-10,68,55,48,50,45,42,84,70,51,30.03,29.91,2,0,7,0.00
2013-6-11,55,55,54,47,47,47,76,75,74,30.14,30.14,0,0,0,0.05
2013-6-12,59,54,51,52,49,46,93,84,72,30.18,30.13,3,0,3,0.14
2013-6-13,57,53,49,55,51,47,95,92,87,30.30,30.17,1,0,5,0.54
2013-6-14,55,52,50,51,49,47,94,90,82,30.30,30.24,1,0,1,0.01
2013-6-16,72,66,59,58,55,52,80,70,60,30.08,30.04,0,0,0,0.00
2013-6-17,76,64,52,56,52,49,89,67,43,30.08,29.91,0,0,3,0.00
2013-6-18,71,62,52,53,50,47,90,67,48,29.99,29.91,6,0,7,0.00
2013-6-19,65,57,51,56,49,46,88,76,59,30.07,29.93,5,1,8,0.06
2013-6-20,66,57,51,56,51,47,94,80,51,30.13,30.03,5,1,8,0.15
2013-6-21,70,60,53,53,50,47,85,71,52,30.17,30.11,3,1,5,0.00
2013-6-22,79,66,53,57,52,47,93,65,33,30.11,29.83,2,1,4,0.00
2013-6-23,68,61,57,60,55,52,94,81,57,29.83,29.62,3,0,5,0.20
2013-6-24,68,59,54,59,55,52,95,87,62,29.70,29.61,2,0,5,0.29
2013-6-25,68,60,55,63,57,53,95,90,72,29.85,29.67,3,1,9,0.13
2013-6-26,72,62,57,63,58,54,95,85,62,30.03,29.85,2,0,3,0.15
2013-6-27,79,69,60,65,60,57,90,75,57,30.15,30.00,5,2,7,0.00
2013-6-28,91,75,62,69,63,59,93,71,39,30.13,29.99,6,2,9,0.00
2013-6-29,86,76,64,65,61,55,81,62,45,30.07,29.94,4,2,9,0.00
2013-6-30,95,79,65,71,64,60,85,63,40,29.96,29.80,5,2,9,0.00
2013-7-1,92,76,64,70,64,60,87,68,47,29.98,29.87,4,2,7,0.00
2013-7-2,83,72,61,65,60,56,88,67,43,30.05,29.98,7,3,10,0.00
2013-7-3,80,68,58,57,53,49,79,60,40,30.12,30.00,6,3,10,0.00
2013-7-4,72,62,53,55,52,48,86,68,53,30.13,30.02,7,2,12,0.00
2013-7-5,72,62,54,56,52,48,83,71,56,30.05,29.93,4,2,9,0.00
2013-7-6,75,62,52,59,54,49,89,76,54,29.97,29.84,5,2,10,0.00
2013-7-7,75,63,55,61,55,52,90,77,59,29.96,29.87,5,2,11,0.00
2013-7-8,78,61,54,60,53,50,88,77,53,30.08,29.96,7,2,12,0.00
2013-7-9,66,66,66,56,56,56,71,70,70,30.01,30.00,2,2,6,0.00
2013-7-10,76,65,55,59,54,47,87,68,50,30.05,29.92,7,3,11,0.00
2013-7-11,73,60,51,52,48,45,82,67,47,30.08,29.97,5,2,10,0.00
2013-7-12,69,64,57,54,51,49,75,63,53,30.09,30.01,6,3,13,0.00
2013-7-13,75,62,52,52,48,44,76,62,36,30.16,30.02,9,5,17,0.00
2013-7-14,82,69,58,55,50,44,72,54,32,30.08,29.94,7,4,12,0.00
2013-7-15,82,68,54,57,51,44,83,56,38,29.99,29.79,9,4,18,0.00
2013-7-16,87,73,63,62,55,48,74,53,38,29.93,29.75,7,3,8,0.00
2013-7-17,73,64,57,59,55,53,87,74,56,30.16,29.93,5,2,10,0.00
2013-7-18,77,65,56,60,56,52,89,72,51,30.19,30.05,7,4,12,0.00
2013-7-19,78,65,55,62,57,52,89,76,56,30.13,29.98,7,3,12,0.00
2013-7-20,78,64,55,63,56,52,91,77,58,30.07,29.93,5,2,8,0.00
2013-7-21,78,64,54,63,56,51,91,78,57,29.98,29.88,5,2,9,0.00
2013-7-22,78,65,55,61,56,52,90,75,52,30.04,29.93,6,3,9,0.00
2013-7-23,85,70,58,65,59,55,93,73,44,30.03,29.92,7,3,10,0.00
2013-7-24,86,71,56,64,58,54,91,65,38,30.02,29.94,6,3,9,0.00
2013-7-25,85,70,56,61,55,51,85,61,34,30.06,29.98,6,3,14,0.00
2013-7-26,84,68,57,59,52,45,79,59,36,30.11,30.02,7,4,13,0.00
2013-7-27,77,74,69,57,55,51,60,50,45,30.11,29.99,4,2,9,0.00
2013-7-28,67,56,51,54,50,48,91,80,63,30.05,29.97,6,1,11,0.00
2013-7-29,73,63,55,59,53,49,84,72,58,30.00,29.92,4,1,6,0.00
2013-7-30,77,65,54,61,56,51,90,75,53,30.13,30.00,4,2,7,0.00
2013-7-31,76,64,56,62,57,53,90,79,59,30.09,29.99,5,2,8,0.00
2013-8-1,65,59,55,58,55,52,93,87,75,30.09,30.03,4,0,8,0.04
2013-8-2,69,62,54,57,54,51,90,77,60,30.14,30.08,3,1,6,0.00
2013-8-3,77,66,58,62,57,54,88,75,55,30.10,29.97,8,4,14,0.00
2013-8-4,85,71,60,65,60,56,87,70,47,30.00,29.87,6,3,12,0.00
2013-8-5,84,71,59,64,60,55,89,69,47,29.99,29.88,6,2,13,0.00
2013-8-6,87,72,57,61,56,52,86,60,34,29.98,29.87,5,2,8,0.00
2013-8-7,83,70,59,62,57,54,87,66,40,30.00,29.91,5,1,7,0.00
2013-8-8,77,66,57,64,58,54,89,76,57,30.02,29.89,4,1,7,0.00
2013-8-9,75,66,57,61,57,52,86,73,60,29.93,29.84,5,2,9,0.00
2013-8-10,77,67,59,66,60,56,92,78,61,30.01,29.87,3,1,6,0.00
2013-8-11,69,62,58,60,57,54,90,83,70,30.06,29.98,4,1,6,0.00
2013-8-12,76,65,58,60,56,54,89,74,53,30.05,29.99,5,1,6,0.00
2013-8-13,80,68,56,59,55,51,84,65,43,30.08,29.90,4,2,7,0.00
2013-8-14,84,70,60,60,56,50,84,64,31,29.94,29.89,5,1,6,0.00
2013-8-15,77,70,65,66,62,59,89,78,66,29.96,29.91,4,1,5,0.00
2013-8-16,81,70,63,67,63,57,94,80,56,30.01,29.94,4,1,6,0.00
2013-8-17,79,68,59,61,58,54,86,71,53,30.07,30.00,6,2,9,0.00
2013-8-18,78,67,58,62,58,55,89,72,54,30.11,30.02,5,2,8,0.00
2013-8-19,79,68,59,61,57,53,87,69,48,30.10,30.02,7,3,14,0.00
2013-8-20,77,65,54,57,52,48,85,66,42,30.11,29.98,8,4,15,0.00
2013-8-21,83,70,58,58,53,49,73,56,40,29.99,29.83,8,5,14,0.00
2013-8-22,80,71,63,62,57,52,87,60,47,29.87,29.81,6,2,8,0.04
2013-8-23,73,64,59,60,58,56,92,80,60,29.92,29.85,3,1,6,0.03
2013-8-24,72,64,59,60,56,52,90,75,58,29.90,29.83,5,1,9,0.00
2013-8-25,68,62,57,61,56,52,92,82,73,29.92,29.88,5,1,8,0.10
2013-8-26,77,65,58,61,57,52,93,77,44,29.95,29.87,4,1,10,0.41
2013-8-27,77,67,59,64,60,57,94,79,57,29.95,29.77,5,1,6,0.06
2013-8-28,79,69,60,64,61,58,91,76,59,29.89,29.82,3,1,4,0.04
2013-8-29,74,67,63,67,63,61,94,89,72,30.05,29.82,3,1,7,0.24
2013-8-30,75,67,61,64,60,57,94,79,60,30.13,30.03,6,1,8,0.04
2013-8-31,77,64,58,61,58,55,89,79,54,30.03,29.81,5,3,8,0.00
2013-9-1,80,69,60,60,57,51,87,68,39,29.88,29.77,4,1,8,0.00
2013-9-2,76,69,62,62,57,54,81,66,52,29.90,29.85,4,1,8,0.00
2013-9-3,75,66,59,62,58,54,93,77,55,29.98,29.90,5,1,7,0.12
2013-9-4,71,65,60,62,59,57,87,79,69,30.03,29.96,6,1,9,0.00
2013-9-5,65,62,57,60,58,55,94,89,82,30.01,29.94,5,2,7,0.59
2013-9-6,66,61,57,62,58,55,94,90,81,30.11,29.99,5,2,11,0.95
2013-9-7,67,60,58,59,57,56,94,91,77,30.10,29.98,7,2,10,0.00
2013-9-8,74,64,59,63,59,56,91,83,67,30.06,29.97,6,4,10,0.00
2013-9-9,77,66,59,64,60,57,92,83,62,30.02,29.91,6,3,11,0.00
2013-9-10,83,70,60,66,62,57,91,75,54,29.91,29.77,7,4,12,0.00
2013-9-11,90,78,68,67,62,57,82,59,44,29.90,29.80,5,2,7,0.00
2013-9-12,76,65,59,64,60,57,92,84,67,29.98,29.88,2,1,4,0.00
2013-9-13,68,62,58,62,58,55,93,87,80,29.95,29.83,4,2,7,0.00
2013-9-14,72,64,59,64,60,57,94,87,74,29.85,29.70,4,2,6,0.00
2013-9-15,66,61,58,62,59,56,93,91,86,29.86,29.69,3,1,5,0.10
2013-9-16,67,60,57,60,57,54,92,88,72,29.96,29.86,3,1,6,0.05
2013-9-17,66,58,54,57,52,49,93,79,61,29.99,29.85,5,2,9,0.00
2013-9-18,66,60,53,54,50,48,91,73,53,30.08,29.99,4,1,8,0.00
2013-9-19,72,61,50,53,50,47,92,71,43,30.00,29.77,3,1,5,0.01
2013-9-20,70,61,53,58,53,49,89,76,62,29.77,29.63,3,1,7,0.00
2013-9-21,63,57,54,58,54,52,93,90,81,29.76,29.66,3,0,5,0.29
2013-9-22,58,55,53,55,52,51,94,92,79,29.85,29.64,3,1,7,0.34
2013-9-23,61,56,52,57,53,50,94,92,81,29.99,29.84,3,1,5,0.31
2013-9-24,57,52,49,53,50,46,94,92,85,29.98,29.85,5,0,9,0.24
2013-9-25,57,52,47,50,47,45,94,86,71,30.03,29.85,5,2,8,0.03
2013-9-26,60,53,48,51,48,45,93,82,66,30.16,30.03,4,1,10,0.00
2013-9-27,54,51,48,52,49,46,94,92,87,30.16,29.90,3,1,7,0.23
2013-9-28,59,55,51,58,54,49,95,94,92,29.90,29.47,4,2,21,1.42
2013-9-29,54,52,49,53,50,47,95,95,91,29.66,29.33,4,1,7,1.56
2013-9-30,54,50,47,53,48,45,95,93,86,29.99,29.58,2,1,5,0.34
2013-10-1,53,49,46,51,46,44,95,91,78,30.19,29.96,7,1,9,0.50
2013-10-2,52,48,44,49,45,42,94,91,84,30.18,30.07,4,0,5,0.14
2013-10-3,54,49,44,48,45,42,95,86,72,30.43,30.32,2,0,5,0.01
2013-10-4,59,51,43,51,46,41,95,84,65,30.45,30.34,2,1,5,0.00
2013-10-5,53,49,47,48,44,42,86,83,77,30.34,30.28,4,2,6,0.00
2013-10-6,67,61,51,53,47,40,83,61,42,30.05,29.95,1,0,4,0.00
2013-10-7,59,54,50,51,48,44,94,81,64,30.12,29.96,7,1,12,0.13
2013-10-8,51,49,48,48,46,46,92,90,86,30.14,30.05,3,1,5,0.01
2013-10-10,52,51,50,49,48,45,91,88,82,30.08,30.03,2,1,4,0.00
2013-10-11,55,51,48,48,45,43,88,80,70,30.14,30.08,3,1,4,0.00
2013-10-12,53,50,47,48,45,44,92,86,77,30.17,30.06,4,1,7,0.01
2013-10-13,56,48,43,48,44,42,94,86,70,30.31,30.17,8,3,16,0.00
2013-10-14,61,50,43,48,44,41,93,80,59,30.36,30.30,5,3,8,0.00
2013-10-15,64,53,45,45,43,40,88,70,42,30.34,30.13,6,3,10,0.00
2013-10-16,58,51,46,49,45,43,91,81,68,30.16,30.10,4,2,7,0.00
2013-10-17,59,50,45,50,46,44,94,86,71,30.23,30.15,5,2,10,0.00
2013-10-18,64,55,47,48,46,44,90,73,52,30.18,30.08,5,2,7,0.00
2013-10-19,61,53,45,49,46,43,93,79,62,30.15,30.09,4,2,6,0.00
2013-10-20,58,49,44,50,45,42,95,88,67,30.15,30.05,7,2,10,0.01
2013-10-21,65,54,43,54,47,42,94,78,59,30.09,29.99,6,3,8,0.01
2013-10-22,62,60,57,52,50,46,79,69,62,30.02,29.96,4,2,5,0.00
2013-10-23,65,58,51,54,50,47,90,74,59,29.99,29.93,4,2,5,0.00
2013-10-24,60,53,46,53,48,43,93,85,76,30.09,29.97,4,1,7,0.00
2013-10-25,53,50,48,49,47,46,95,91,85,30.26,30.09,5,2,9,0.00
2013-10-26,52,49,46,47,46,43,93,89,82,30.28,30.16,6,2,11,0.01
2013-10-27,53,48,46,48,44,42,93,86,73,30.18,29.83,9,4,14,0.06
2013-10-28,53,48,44,43,38,30,89,72,44,29.92,29.82,6,3,11,0.00
2013-10-29,52,46,39,37,35,32,87,66,49,30.05,29.92,4,1,6,0.00
2013-10-30,55,45,37,44,37,33,89,76,60,30.18,30.04,2,0,3,0.01
2013-10-31,57,52,48,51,47,43,90,84,76,30.27,30.14,2,0,5,0.01
2013-11-1,57,52,49,50,49,47,94,88,76,30.28,29.90,3,0,6,0.13
2013-11-2,52,48,42,50,44,38,94,86,66,30.04,29.70,6,2,10,0.67
2013-11-3,49,43,40,44,40,38,92,88,77,30.14,30.03,5,2,8,0.16
2013-11-4,47,45,43,45,43,40,94,93,90,30.17,30.10,3,0,4,0.39
2013-11-5,51,49,46,50,47,44,95,94,91,30.24,30.06,4,1,9,0.10
2013-11-6,52,49,47,50,48,45,95,94,92,30.29,30.08,2,0,3,0.37
2013-11-7,54,49,46,52,47,44,95,93,89,30.11,29.85,6,1,9,0.39
2013-11-8,50,46,45,47,44,42,94,92,87,30.19,30.11,4,1,8,0.03
2013-11-9,47,44,42,44,42,40,95,93,88,30.13,30.04,3,1,5,0.00
2013-11-10,53,48,45,47,45,42,93,87,78,30.09,30.04,3,1,6,0.00
2013-11-11,55,50,46,45,43,41,92,75,64,30.15,30.02,7,4,11,0.00
2013-11-12,54,51,47,52,48,42,95,91,70,30.41,30.07,4,0,9,0.25
2013-11-13,51,48,45,48,46,44,95,92,84,30.48,30.29,3,1,7,0.01
2013-11-14,46,45,45,44,44,43,94,94,93,30.29,30.23,4,2,6,0.00
2013-11-17,50,48,43,46,44,41,93,88,83,29.98,29.88,2,1,7,0.00
2013-11-18,50,49,47,48,45,43,94,88,79,29.95,29.68,3,1,6,0.47
2013-11-19,51,45,37,49,42,28,95,87,69,30.02,29.69,6,3,10,0.44
2013-11-20,42,36,32,33,30,27,89,78,70,30.42,30.02,6,4,11,0.00
2013-11-21,43,35,30,27,23,14,86,66,33,30.59,30.42,6,3,10,0.00
2013-11-22,42,37,31,26,21,17,82,55,38,30.59,30.42,6,2,11,0.00
2013-11-23,46,41,38,22,20,19,52,44,35,30.42,30.19,8,5,15,0.00
2013-11-24,48,41,36,27,23,19,57,49,40,30.28,30.16,5,2,8,0.00
2013-11-25,46,41,37,30,26,23,62,55,48,30.35,30.28,5,2,9,0.00
2013-11-26,49,43,38,33,29,26,64,57,49,30.29,30.08,4,1,9,0.00
2013-11-27,48,43,38,33,30,28,67,60,52,30.08,29.97,3,2,8,0.00
2013-11-28,47,42,38,35,32,29,75,67,60,30.21,30.03,3,1,8,0.00
2013-11-29,44,40,34,41,35,30,90,82,75,30.37,30.20,3,1,4,0.01
2013-11-30,47,44,41,45,41,38,93,89,81,30.38,30.20,4,0,6,0.14
2013-12-1,53,51,47,52,49,45,95,93,91,30.20,29.90,4,2,7,0.88
2013-12-2,49,40,35,47,37,32,93,88,74,30.04,29.90,7,2,10,0.09
2013-12-3,38,35,30,34,28,19,94,76,50,30.29,30.04,5,1,11,0.00
2013-12-4,33,29,26,26,20,15,92,71,47,30.34,30.28,3,1,8,0.00
2013-12-5,30,26,22,19,16,13,80,67,57,30.31,30.18,3,1,6,0.00
2013-12-6,27,25,22,19,14,9,86,64,54,30.18,30.00,7,4,16,0.00
2013-12-7,24,21,18,10,6,3,60,52,39,30.45,30.13,6,3,14,0.01
2013-12-8,24,19,13,15,11,6,79,71,61,30.61,30.44,2,0,2,0.00
2013-12-9,27,23,17,22,16,12,83,76,69,30.62,30.54,2,0,3,0.00
2013-12-10,33,29,25,29,25,20,91,83,75,30.56,30.41,3,0,3,0.00
2013-12-11,36,32,27,30,27,24,92,83,70,30.41,30.21,4,1,9,0.00
2013-12-12,37,34,31,35,29,26,94,84,73,30.22,30.12,2,0,4,0.17
2013-12-13,44,41,36,42,40,35,95,94,93,30.44,30.22,3,0,5,0.05
2013-12-14,42,40,38,41,38,36,95,95,94,30.46,30.37,2,0,4,0.01
2013-12-15,44,41,38,42,40,37,98,96,91,30.49,30.41,1,0,2,0.00
2013-12-16,42,41,40,41,40,39,99,99,97,30.48,30.44,3,1,6,0.01